sensor_id;sensor_type;location;lat;lon;timestamp;P1;durP1;ratioP1;P2;durP2;ratioP2
53505;SDS011;39388;50.936;6.848;2023-02-15T00:00:38;25.52;;;15.77;;
53505;SDS011;39388;50.936;6.848;2023-02-15T00:03:08;27.00;;;15.35;;
53505;SDS011;39388;50.936;6.848;2023-02-15T00:05:38;25.45;;;16.20;;
53505;SDS011;39388;50.936;6.848;2023-02-15T00:08:09;24.20;;;14.25;;
53505;SDS011;39388;50.936;6.848;2023-02-15T00:10:39;25.13;;;15.57;;
53505;SDS011;39388;50.936;6.848;2023-02-15T00:13:09;25.70;;;16.05;;
53505;SDS011;39388;50.936;6.848;2023-02-15T00:15:40;27.85;;;15.95;;
53505;SDS011;39388;50.936;6.848;2023-02-15T00:18:10;26.70;;;15.48;;
53505;SDS011;39388;50.936;6.848;2023-02-15T00:20:40;28.60;;;17.13;;
53505;SDS011;39388;50.936;6.848;2023-02-15T00:23:11;26.40;;;16.33;;
53505;SDS011;39388;50.936;6.848;2023-02-15T00:25:41;26.25;;;15.40;;
53505;SDS011;39388;50.936;6.848;2023-02-15T00:28:11;28.17;;;16.33;;
53505;SDS011;39388;50.936;6.848;2023-02-15T00:30:42;26.20;;;16.85;;
53505;SDS011;39388;50.936;6.848;2023-02-15T00:33:12;28.17;;;17.15;;
53505;SDS011;39388;50.936;6.848;2023-02-15T00:35:43;26.58;;;15.23;;
53505;SDS011;39388;50.936;6.848;2023-02-15T00:38:13;24.17;;;16.42;;
53505;SDS011;39388;50.936;6.848;2023-02-15T00:40:43;26.70;;;16.50;;
53505;SDS011;39388;50.936;6.848;2023-02-15T00:43:14;23.60;;;15.60;;
53505;SDS011;39388;50.936;6.848;2023-02-15T00:45:45;27.08;;;14.98;;
53505;SDS011;39388;50.936;6.848;2023-02-15T00:48:16;30.73;;;17.10;;
53505;SDS011;39388;50.936;6.848;2023-02-15T00:50:48;28.25;;;16.98;;
53505;SDS011;39388;50.936;6.848;2023-02-15T00:53:21;27.55;;;15.60;;
53505;SDS011;39388;50.936;6.848;2023-02-15T00:55:52;28.63;;;16.73;;
53505;SDS011;39388;50.936;6.848;2023-02-15T00:58:22;26.17;;;15.90;;
53505;SDS011;39388;50.936;6.848;2023-02-15T01:00:53;25.85;;;15.43;;
53505;SDS011;39388;50.936;6.848;2023-02-15T01:03:24;26.00;;;15.85;;
53505;SDS011;39388;50.936;6.848;2023-02-15T01:05:54;25.40;;;15.35;;
53505;SDS011;39388;50.936;6.848;2023-02-15T01:08:24;20.30;;;11.75;;
53505;SDS011;39388;50.936;6.848;2023-02-15T01:10:55;28.20;;;16.50;;
53505;SDS011;39388;50.936;6.848;2023-02-15T01:13:26;28.70;;;15.98;;
53505;SDS011;39388;50.936;6.848;2023-02-15T01:15:56;26.33;;;16.48;;
53505;SDS011;39388;50.936;6.848;2023-02-15T01:18:27;24.73;;;15.23;;
53505;SDS011;39388;50.936;6.848;2023-02-15T01:20:57;28.98;;;17.52;;
53505;SDS011;39388;50.936;6.848;2023-02-15T01:23:27;27.60;;;17.05;;
53505;SDS011;39388;50.936;6.848;2023-02-15T01:26:01;25.08;;;15.82;;
53505;SDS011;39388;50.936;6.848;2023-02-15T01:28:31;26.75;;;15.27;;
53505;SDS011;39388;50.936;6.848;2023-02-15T01:31:09;26.05;;;16.63;;
53505;SDS011;39388;50.936;6.848;2023-02-15T01:33:48;28.13;;;17.38;;
53505;SDS011;39388;50.936;6.848;2023-02-15T01:36:19;26.42;;;15.95;;
53505;SDS011;39388;50.936;6.848;2023-02-15T01:38:49;29.67;;;17.42;;
53505;SDS011;39388;50.936;6.848;2023-02-15T01:41:19;28.85;;;16.70;;
53505;SDS011;39388;50.936;6.848;2023-02-15T01:43:51;27.73;;;16.65;;
53505;SDS011;39388;50.936;6.848;2023-02-15T01:46:43;25.92;;;15.30;;
53505;SDS011;39388;50.936;6.848;2023-02-15T01:49:20;28.77;;;16.75;;
53505;SDS011;39388;50.936;6.848;2023-02-15T01:51:56;26.58;;;15.93;;
53505;SDS011;39388;50.936;6.848;2023-02-15T01:54:27;28.67;;;16.55;;
53505;SDS011;39388;50.936;6.848;2023-02-15T01:57:02;32.90;;;18.33;;
53505;SDS011;39388;50.936;6.848;2023-02-15T01:59:35;26.98;;;15.27;;
53505;SDS011;39388;50.936;6.848;2023-02-15T02:02:09;28.17;;;16.08;;
53505;SDS011;39388;50.936;6.848;2023-02-15T02:07:19;28.30;;;16.33;;
53505;SDS011;39388;50.936;6.848;2023-02-15T02:09:52;25.65;;;15.57;;
53505;SDS011;39388;50.936;6.848;2023-02-15T02:12:22;28.02;;;15.90;;
53505;SDS011;39388;50.936;6.848;2023-02-15T02:14:54;26.38;;;15.73;;
53505;SDS011;39388;50.936;6.848;2023-02-15T02:34:47;27.00;;;16.42;;
53505;SDS011;39388;50.936;6.848;2023-02-15T02:37:28;29.17;;;16.08;;
53505;SDS011;39388;50.936;6.848;2023-02-15T02:43:20;27.73;;;15.75;;
53505;SDS011;39388;50.936;6.848;2023-02-15T02:45:57;26.45;;;16.35;;
53505;SDS011;39388;50.936;6.848;2023-02-15T02:48:32;25.98;;;16.85;;
53505;SDS011;39388;50.936;6.848;2023-02-15T02:51:04;27.35;;;15.32;;
53505;SDS011;39388;50.936;6.848;2023-02-15T02:53:34;26.25;;;15.98;;
53505;SDS011;39388;50.936;6.848;2023-02-15T02:56:11;25.85;;;15.30;;
53505;SDS011;39388;50.936;6.848;2023-02-15T03:01:49;26.48;;;16.25;;
53505;SDS011;39388;50.936;6.848;2023-02-15T03:04:22;25.88;;;16.20;;
53505;SDS011;39388;50.936;6.848;2023-02-15T03:07:01;27.52;;;15.45;;
53505;SDS011;39388;50.936;6.848;2023-02-15T03:09:36;28.40;;;15.98;;
53505;SDS011;39388;50.936;6.848;2023-02-15T03:12:19;31.23;;;16.52;;
53505;SDS011;39388;50.936;6.848;2023-02-15T03:14:53;27.10;;;14.93;;
53505;SDS011;39388;50.936;6.848;2023-02-15T03:17:34;29.67;;;17.00;;
53505;SDS011;39388;50.936;6.848;2023-02-15T03:20:09;29.90;;;16.33;;
53505;SDS011;39388;50.936;6.848;2023-02-15T03:22:55;28.35;;;15.40;;
53505;SDS011;39388;50.936;6.848;2023-02-15T03:25:37;26.58;;;15.75;;
53505;SDS011;39388;50.936;6.848;2023-02-15T03:28:34;27.17;;;16.20;;
53505;SDS011;39388;50.936;6.848;2023-02-15T03:31:13;28.00;;;16.45;;
53505;SDS011;39388;50.936;6.848;2023-02-15T03:33:50;31.63;;;16.45;;
53505;SDS011;39388;50.936;6.848;2023-02-15T03:36:28;30.48;;;16.48;;
53505;SDS011;39388;50.936;6.848;2023-02-15T03:39:07;28.38;;;15.82;;
53505;SDS011;39388;50.936;6.848;2023-02-15T03:42:00;25.23;;;15.27;;
53505;SDS011;39388;50.936;6.848;2023-02-15T03:44:54;25.73;;;15.85;;
53505;SDS011;39388;50.936;6.848;2023-02-15T03:47:32;28.80;;;15.88;;
53505;SDS011;39388;50.936;6.848;2023-02-15T03:52:57;29.67;;;17.13;;
53505;SDS011;39388;50.936;6.848;2023-02-15T03:55:30;27.70;;;15.85;;
53505;SDS011;39388;50.936;6.848;2023-02-15T03:58:00;26.10;;;15.52;;
53505;SDS011;39388;50.936;6.848;2023-02-15T04:01:00;29.27;;;17.05;;
53505;SDS011;39388;50.936;6.848;2023-02-15T04:04:01;31.05;;;16.67;;
53505;SDS011;39388;50.936;6.848;2023-02-15T04:06:36;26.20;;;16.77;;
53505;SDS011;39388;50.936;6.848;2023-02-15T04:09:07;27.60;;;16.92;;
53505;SDS011;39388;50.936;6.848;2023-02-15T04:11:55;29.85;;;16.40;;
53505;SDS011;39388;50.936;6.848;2023-02-15T04:14:26;27.40;;;15.98;;
53505;SDS011;39388;50.936;6.848;2023-02-15T04:17:15;25.10;;;14.63;;
53505;SDS011;39388;50.936;6.848;2023-02-15T04:19:45;25.42;;;15.27;;
53505;SDS011;39388;50.936;6.848;2023-02-15T04:22:34;31.08;;;16.23;;
53505;SDS011;39388;50.936;6.848;2023-02-15T04:25:23;29.98;;;16.23;;
53505;SDS011;39388;50.936;6.848;2023-02-15T04:27:54;25.05;;;14.90;;
53505;SDS011;39388;50.936;6.848;2023-02-15T04:30:25;26.70;;;15.77;;
53505;SDS011;39388;50.936;6.848;2023-02-15T04:32:56;27.77;;;15.40;;
53505;SDS011;39388;50.936;6.848;2023-02-15T04:35:27;27.58;;;15.63;;
53505;SDS011;39388;50.936;6.848;2023-02-15T04:37:57;28.58;;;14.95;;
53505;SDS011;39388;50.936;6.848;2023-02-15T04:40:28;24.90;;;14.88;;
53505;SDS011;39388;50.936;6.848;2023-02-15T04:42:58;30.10;;;16.08;;
53505;SDS011;39388;50.936;6.848;2023-02-15T04:45:29;30.13;;;16.60;;
53505;SDS011;39388;50.936;6.848;2023-02-15T04:47:59;27.35;;;16.73;;
53505;SDS011;39388;50.936;6.848;2023-02-15T04:50:29;29.20;;;16.30;;
53505;SDS011;39388;50.936;6.848;2023-02-15T04:53:00;27.13;;;15.35;;
53505;SDS011;39388;50.936;6.848;2023-02-15T04:55:30;27.58;;;15.38;;
53505;SDS011;39388;50.936;6.848;2023-02-15T04:58:00;29.38;;;15.95;;
53505;SDS011;39388;50.936;6.848;2023-02-15T05:00:31;27.02;;;15.38;;
53505;SDS011;39388;50.936;6.848;2023-02-15T05:03:01;27.30;;;16.92;;
53505;SDS011;39388;50.936;6.848;2023-02-15T05:05:32;24.75;;;15.32;;
53505;SDS011;39388;50.936;6.848;2023-02-15T05:08:02;24.30;;;15.40;;
53505;SDS011;39388;50.936;6.848;2023-02-15T05:10:32;25.42;;;15.35;;
53505;SDS011;39388;50.936;6.848;2023-02-15T05:13:03;24.70;;;14.88;;
53505;SDS011;39388;50.936;6.848;2023-02-15T05:15:33;26.08;;;14.63;;
53505;SDS011;39388;50.936;6.848;2023-02-15T05:18:03;27.27;;;15.77;;
53505;SDS011;39388;50.936;6.848;2023-02-15T05:20:35;26.50;;;15.45;;
53505;SDS011;39388;50.936;6.848;2023-02-15T05:23:06;27.38;;;16.10;;
53505;SDS011;39388;50.936;6.848;2023-02-15T05:25:36;26.70;;;15.02;;
53505;SDS011;39388;50.936;6.848;2023-02-15T05:28:26;25.77;;;15.60;;
53505;SDS011;39388;50.936;6.848;2023-02-15T05:31:09;25.87;;;15.70;;
53505;SDS011;39388;50.936;6.848;2023-02-15T05:33:42;26.80;;;15.15;;
53505;SDS011;39388;50.936;6.848;2023-02-15T05:36:13;27.23;;;15.98;;
53505;SDS011;39388;50.936;6.848;2023-02-15T05:38:44;27.52;;;15.40;;
53505;SDS011;39388;50.936;6.848;2023-02-15T05:41:14;26.20;;;15.63;;
53505;SDS011;39388;50.936;6.848;2023-02-15T05:43:45;26.60;;;15.45;;
53505;SDS011;39388;50.936;6.848;2023-02-15T05:46:15;23.27;;;14.27;;
53505;SDS011;39388;50.936;6.848;2023-02-15T05:48:46;25.30;;;14.43;;
53505;SDS011;39388;50.936;6.848;2023-02-15T05:51:16;22.23;;;13.70;;
53505;SDS011;39388;50.936;6.848;2023-02-15T05:53:46;24.60;;;14.85;;
53505;SDS011;39388;50.936;6.848;2023-02-15T05:56:17;24.17;;;14.75;;
53505;SDS011;39388;50.936;6.848;2023-02-15T05:58:47;26.50;;;15.07;;
53505;SDS011;39388;50.936;6.848;2023-02-15T06:01:18;23.35;;;14.00;;
53505;SDS011;39388;50.936;6.848;2023-02-15T06:03:51;24.23;;;13.93;;
53505;SDS011;39388;50.936;6.848;2023-02-15T06:06:22;24.85;;;13.55;;
53505;SDS011;39388;50.936;6.848;2023-02-15T06:08:52;26.63;;;15.23;;
53505;SDS011;39388;50.936;6.848;2023-02-15T06:11:23;23.70;;;14.23;;
53505;SDS011;39388;50.936;6.848;2023-02-15T06:13:53;21.98;;;14.57;;
53505;SDS011;39388;50.936;6.848;2023-02-15T06:16:24;23.08;;;13.48;;
53505;SDS011;39388;50.936;6.848;2023-02-15T06:18:54;25.08;;;14.93;;
53505;SDS011;39388;50.936;6.848;2023-02-15T06:21:24;26.30;;;14.98;;
53505;SDS011;39388;50.936;6.848;2023-02-15T06:23:55;21.58;;;14.32;;
53505;SDS011;39388;50.936;6.848;2023-02-15T06:26:25;21.58;;;13.80;;
53505;SDS011;39388;50.936;6.848;2023-02-15T06:28:56;25.13;;;14.77;;
53505;SDS011;39388;50.936;6.848;2023-02-15T06:31:26;23.30;;;13.77;;
53505;SDS011;39388;50.936;6.848;2023-02-15T06:33:56;23.38;;;13.95;;
53505;SDS011;39388;50.936;6.848;2023-02-15T06:36:33;21.27;;;13.85;;
53505;SDS011;39388;50.936;6.848;2023-02-15T06:39:03;25.55;;;15.48;;
53505;SDS011;39388;50.936;6.848;2023-02-15T06:41:34;24.48;;;14.45;;
53505;SDS011;39388;50.936;6.848;2023-02-15T06:44:04;25.70;;;14.80;;
53505;SDS011;39388;50.936;6.848;2023-02-15T06:46:35;23.25;;;15.05;;
53505;SDS011;39388;50.936;6.848;2023-02-15T06:49:05;25.05;;;14.60;;
53505;SDS011;39388;50.936;6.848;2023-02-15T06:51:36;19.77;;;13.23;;
53505;SDS011;39388;50.936;6.848;2023-02-15T06:54:06;22.90;;;14.23;;
53505;SDS011;39388;50.936;6.848;2023-02-15T06:56:37;22.77;;;13.73;;
53505;SDS011;39388;50.936;6.848;2023-02-15T06:59:08;21.90;;;13.60;;
53505;SDS011;39388;50.936;6.848;2023-02-15T07:01:39;20.55;;;13.27;;
53505;SDS011;39388;50.936;6.848;2023-02-15T07:04:09;22.77;;;14.25;;
53505;SDS011;39388;50.936;6.848;2023-02-15T07:06:39;23.85;;;14.65;;
53505;SDS011;39388;50.936;6.848;2023-02-15T07:09:10;26.13;;;14.55;;
53505;SDS011;39388;50.936;6.848;2023-02-15T07:11:40;23.55;;;14.40;;
53505;SDS011;39388;50.936;6.848;2023-02-15T07:14:29;23.08;;;13.60;;
53505;SDS011;39388;50.936;6.848;2023-02-15T07:16:59;23.50;;;13.93;;
53505;SDS011;39388;50.936;6.848;2023-02-15T07:19:30;20.98;;;14.07;;
53505;SDS011;39388;50.936;6.848;2023-02-15T07:22:00;22.92;;;13.32;;
53505;SDS011;39388;50.936;6.848;2023-02-15T07:24:30;21.27;;;13.27;;
53505;SDS011;39388;50.936;6.848;2023-02-15T07:27:01;21.75;;;13.02;;
53505;SDS011;39388;50.936;6.848;2023-02-15T07:29:31;22.85;;;13.65;;
53505;SDS011;39388;50.936;6.848;2023-02-15T07:32:02;24.75;;;13.95;;
53505;SDS011;39388;50.936;6.848;2023-02-15T07:34:32;19.90;;;12.93;;
53505;SDS011;39388;50.936;6.848;2023-02-15T07:37:03;23.10;;;14.25;;
53505;SDS011;39388;50.936;6.848;2023-02-15T07:39:34;20.75;;;12.90;;
53505;SDS011;39388;50.936;6.848;2023-02-15T07:42:04;22.02;;;12.82;;
53505;SDS011;39388;50.936;6.848;2023-02-15T07:44:35;19.85;;;12.45;;
53505;SDS011;39388;50.936;6.848;2023-02-15T07:47:05;20.23;;;13.07;;
53505;SDS011;39388;50.936;6.848;2023-02-15T07:49:36;20.35;;;12.73;;
53505;SDS011;39388;50.936;6.848;2023-02-15T07:52:06;20.70;;;12.52;;
53505;SDS011;39388;50.936;6.848;2023-02-15T07:54:36;18.10;;;12.80;;
53505;SDS011;39388;50.936;6.848;2023-02-15T07:57:07;23.00;;;12.95;;
53505;SDS011;39388;50.936;6.848;2023-02-15T07:59:37;19.55;;;11.60;;
53505;SDS011;39388;50.936;6.848;2023-02-15T08:02:10;17.63;;;12.05;;
53505;SDS011;39388;50.936;6.848;2023-02-15T08:04:41;22.27;;;13.18;;
53505;SDS011;39388;50.936;6.848;2023-02-15T08:07:11;17.88;;;11.57;;
53505;SDS011;39388;50.936;6.848;2023-02-15T08:09:42;20.27;;;12.32;;
53505;SDS011;39388;50.936;6.848;2023-02-15T08:12:12;18.77;;;12.00;;
53505;SDS011;39388;50.936;6.848;2023-02-15T08:14:42;16.95;;;11.65;;
53505;SDS011;39388;50.936;6.848;2023-02-15T08:17:13;15.90;;;11.48;;
53505;SDS011;39388;50.936;6.848;2023-02-15T08:19:43;20.13;;;12.50;;
53505;SDS011;39388;50.936;6.848;2023-02-15T08:22:14;20.67;;;11.65;;
53505;SDS011;39388;50.936;6.848;2023-02-15T08:24:44;18.08;;;10.68;;
53505;SDS011;39388;50.936;6.848;2023-02-15T08:27:16;17.85;;;12.07;;
53505;SDS011;39388;50.936;6.848;2023-02-15T08:29:46;18.02;;;12.10;;
53505;SDS011;39388;50.936;6.848;2023-02-15T08:32:17;18.65;;;11.68;;
53505;SDS011;39388;50.936;6.848;2023-02-15T08:34:47;17.08;;;11.82;;
53505;SDS011;39388;50.936;6.848;2023-02-15T08:37:18;18.85;;;12.05;;
53505;SDS011;39388;50.936;6.848;2023-02-15T08:39:49;18.52;;;11.73;;
53505;SDS011;39388;50.936;6.848;2023-02-15T08:42:19;17.23;;;11.50;;
53505;SDS011;39388;50.936;6.848;2023-02-15T08:44:50;17.60;;;11.55;;
53505;SDS011;39388;50.936;6.848;2023-02-15T08:47:21;19.38;;;12.13;;
53505;SDS011;39388;50.936;6.848;2023-02-15T08:49:51;18.55;;;11.88;;
53505;SDS011;39388;50.936;6.848;2023-02-15T08:52:22;19.95;;;11.70;;
53505;SDS011;39388;50.936;6.848;2023-02-15T08:54:52;16.02;;;10.60;;
53505;SDS011;39388;50.936;6.848;2023-02-15T08:57:23;19.75;;;11.27;;
53505;SDS011;39388;50.936;6.848;2023-02-15T08:59:54;16.90;;;11.07;;
53505;SDS011;39388;50.936;6.848;2023-02-15T09:02:24;15.48;;;10.57;;
53505;SDS011;39388;50.936;6.848;2023-02-15T09:04:55;17.33;;;11.40;;
53505;SDS011;39388;50.936;6.848;2023-02-15T09:07:25;18.00;;;10.77;;
53505;SDS011;39388;50.936;6.848;2023-02-15T09:09:56;17.48;;;11.38;;
53505;SDS011;39388;50.936;6.848;2023-02-15T09:12:26;16.48;;;10.40;;
53505;SDS011;39388;50.936;6.848;2023-02-15T09:14:56;16.75;;;10.75;;
53505;SDS011;39388;50.936;6.848;2023-02-15T09:17:27;16.77;;;11.05;;
53505;SDS011;39388;50.936;6.848;2023-02-15T09:19:57;16.65;;;11.35;;
53505;SDS011;39388;50.936;6.848;2023-02-15T09:22:27;18.15;;;11.40;;
53505;SDS011;39388;50.936;6.848;2023-02-15T09:25:00;14.30;;;10.15;;
53505;SDS011;39388;50.936;6.848;2023-02-15T09:27:30;17.05;;;11.02;;
53505;SDS011;39388;50.936;6.848;2023-02-15T09:30:00;15.38;;;10.68;;
53505;SDS011;39388;50.936;6.848;2023-02-15T09:32:31;15.60;;;10.40;;
53505;SDS011;39388;50.936;6.848;2023-02-15T09:35:01;16.38;;;11.18;;
53505;SDS011;39388;50.936;6.848;2023-02-15T09:37:31;17.63;;;11.23;;
53505;SDS011;39388;50.936;6.848;2023-02-15T09:40:02;18.75;;;11.65;;
53505;SDS011;39388;50.936;6.848;2023-02-15T09:57:08;17.52;;;11.23;;
53505;SDS011;39388;50.936;6.848;2023-02-15T09:59:49;17.65;;;10.27;;
53505;SDS011;39388;50.936;6.848;2023-02-15T10:28:56;15.48;;;10.32;;
53505;SDS011;39388;50.936;6.848;2023-02-15T10:31:33;14.43;;;9.90;;
53505;SDS011;39388;50.936;6.848;2023-02-15T10:51:04;14.63;;;8.73;;
53505;SDS011;39388;50.936;6.848;2023-02-15T11:06:40;14.85;;;9.93;;
53505;SDS011;39388;50.936;6.848;2023-02-15T11:09:18;14.15;;;9.43;;
53505;SDS011;39388;50.936;6.848;2023-02-15T11:11:52;13.38;;;10.05;;
53505;SDS011;39388;50.936;6.848;2023-02-15T11:14:31;14.05;;;10.15;;
53505;SDS011;39388;50.936;6.848;2023-02-15T11:17:10;15.20;;;11.25;;
53505;SDS011;39388;50.936;6.848;2023-02-15T11:22:33;15.32;;;9.52;;
53505;SDS011;39388;50.936;6.848;2023-02-15T11:25:05;14.93;;;9.88;;
53505;SDS011;39388;50.936;6.848;2023-02-15T11:27:48;14.63;;;10.07;;
53505;SDS011;39388;50.936;6.848;2023-02-15T11:30:21;14.93;;;9.70;;
53505;SDS011;39388;50.936;6.848;2023-02-15T11:32:57;15.55;;;9.77;;
53505;SDS011;39388;50.936;6.848;2023-02-15T11:35:42;13.27;;;9.20;;
53505;SDS011;39388;50.936;6.848;2023-02-15T11:38:38;14.85;;;9.32;;
53505;SDS011;39388;50.936;6.848;2023-02-15T11:41:17;16.52;;;9.63;;
53505;SDS011;39388;50.936;6.848;2023-02-15T11:46:30;15.95;;;9.35;;
53505;SDS011;39388;50.936;6.848;2023-02-15T11:49:01;13.90;;;9.02;;
53505;SDS011;39388;50.936;6.848;2023-02-15T11:51:32;11.90;;;8.68;;
53505;SDS011;39388;50.936;6.848;2023-02-15T11:54:05;15.80;;;9.50;;
53505;SDS011;39388;50.936;6.848;2023-02-15T11:56:35;13.95;;;9.27;;
53505;SDS011;39388;50.936;6.848;2023-02-15T11:59:08;12.52;;;8.50;;
53505;SDS011;39388;50.936;6.848;2023-02-15T12:01:43;12.43;;;9.07;;
53505;SDS011;39388;50.936;6.848;2023-02-15T12:04:25;18.55;;;9.40;;
53505;SDS011;39388;50.936;6.848;2023-02-15T12:07:13;12.70;;;8.35;;
53505;SDS011;39388;50.936;6.848;2023-02-15T12:12:47;12.70;;;9.02;;
53505;SDS011;39388;50.936;6.848;2023-02-15T12:15:18;13.30;;;8.95;;
53505;SDS011;39388;50.936;6.848;2023-02-15T12:18:02;15.60;;;9.70;;
53505;SDS011;39388;50.936;6.848;2023-02-15T12:20:33;11.88;;;8.70;;
53505;SDS011;39388;50.936;6.848;2023-02-15T12:23:12;13.05;;;9.13;;
53505;SDS011;39388;50.936;6.848;2023-02-15T12:25:54;13.40;;;9.13;;
53505;SDS011;39388;50.936;6.848;2023-02-15T12:28:30;12.40;;;9.18;;
53505;SDS011;39388;50.936;6.848;2023-02-15T12:31:22;14.23;;;9.60;;
53505;SDS011;39388;50.936;6.848;2023-02-15T12:33:56;12.60;;;9.05;;
53505;SDS011;39388;50.936;6.848;2023-02-15T12:36:40;12.98;;;9.50;;
53505;SDS011;39388;50.936;6.848;2023-02-15T12:44:34;19.02;;;10.07;;
53505;SDS011;39388;50.936;6.848;2023-02-15T12:52:47;13.00;;;8.25;;
53505;SDS011;39388;50.936;6.848;2023-02-15T12:55:26;13.43;;;9.02;;
53505;SDS011;39388;50.936;6.848;2023-02-15T12:58:17;13.82;;;9.82;;
53505;SDS011;39388;50.936;6.848;2023-02-15T13:00:48;12.75;;;8.75;;
53505;SDS011;39388;50.936;6.848;2023-02-15T13:06:32;13.80;;;9.27;;
53505;SDS011;39388;50.936;6.848;2023-02-15T13:09:15;12.50;;;8.73;;
53505;SDS011;39388;50.936;6.848;2023-02-15T13:11:49;13.60;;;9.05;;
53505;SDS011;39388;50.936;6.848;2023-02-15T13:14:20;13.98;;;8.05;;
53505;SDS011;39388;50.936;6.848;2023-02-15T13:16:56;14.07;;;8.80;;
53505;SDS011;39388;50.936;6.848;2023-02-15T13:19:34;12.15;;;8.85;;
53505;SDS011;39388;50.936;6.848;2023-02-15T13:22:14;17.00;;;9.13;;
53505;SDS011;39388;50.936;6.848;2023-02-15T13:24:47;19.38;;;8.70;;
53505;SDS011;39388;50.936;6.848;2023-02-15T13:27:36;11.75;;;8.38;;
53505;SDS011;39388;50.936;6.848;2023-02-15T13:30:23;13.93;;;8.88;;
53505;SDS011;39388;50.936;6.848;2023-02-15T13:32:56;11.43;;;8.15;;
53505;SDS011;39388;50.936;6.848;2023-02-15T13:35:34;10.10;;;8.25;;
53505;SDS011;39388;50.936;6.848;2023-02-15T13:39:15;14.85;;;8.98;;
53505;SDS011;39388;50.936;6.848;2023-02-15T13:52:51;12.90;;;8.15;;
53505;SDS011;39388;50.936;6.848;2023-02-15T13:55:32;12.27;;;8.82;;
53505;SDS011;39388;50.936;6.848;2023-02-15T13:58:13;12.90;;;8.55;;
53505;SDS011;39388;50.936;6.848;2023-02-15T14:18:18;11.32;;;7.82;;
53505;SDS011;39388;50.936;6.848;2023-02-15T14:26:51;13.98;;;8.48;;
53505;SDS011;39388;50.936;6.848;2023-02-15T14:29:32;11.48;;;8.57;;
53505;SDS011;39388;50.936;6.848;2023-02-15T14:32:19;16.50;;;9.48;;
53505;SDS011;39388;50.936;6.848;2023-02-15T14:34:55;11.27;;;8.20;;
53505;SDS011;39388;50.936;6.848;2023-02-15T14:40:57;13.18;;;8.48;;
53505;SDS011;39388;50.936;6.848;2023-02-15T14:46:21;10.20;;;8.25;;
53505;SDS011;39388;50.936;6.848;2023-02-15T14:49:05;11.10;;;8.25;;
53505;SDS011;39388;50.936;6.848;2023-02-15T15:02:17;11.20;;;8.25;;
53505;SDS011;39388;50.936;6.848;2023-02-15T15:07:54;13.07;;;8.18;;
53505;SDS011;39388;50.936;6.848;2023-02-15T15:10:40;11.07;;;8.43;;
53505;SDS011;39388;50.936;6.848;2023-02-15T15:16:23;11.82;;;8.68;;
53505;SDS011;39388;50.936;6.848;2023-02-15T15:19:56;13.80;;;9.75;;
53505;SDS011;39388;50.936;6.848;2023-02-15T15:22:18;12.85;;;7.97;;
53505;SDS011;39388;50.936;6.848;2023-02-15T15:24:59;11.50;;;8.18;;
53505;SDS011;39388;50.936;6.848;2023-02-15T15:41:08;13.38;;;8.70;;
53505;SDS011;39388;50.936;6.848;2023-02-15T15:50:15;12.95;;;9.00;;
53505;SDS011;39388;50.936;6.848;2023-02-15T15:52:52;11.25;;;8.00;;
53505;SDS011;39388;50.936;6.848;2023-02-15T15:55:25;17.05;;;9.93;;
53505;SDS011;39388;50.936;6.848;2023-02-15T15:58:02;15.55;;;9.07;;
53505;SDS011;39388;50.936;6.848;2023-02-15T16:01:22;10.65;;;8.20;;
53505;SDS011;39388;50.936;6.848;2023-02-15T16:03:31;12.07;;;8.45;;
53505;SDS011;39388;50.936;6.848;2023-02-15T16:06:01;14.90;;;9.40;;
53505;SDS011;39388;50.936;6.848;2023-02-15T16:08:34;12.68;;;8.88;;
53505;SDS011;39388;50.936;6.848;2023-02-15T16:11:16;12.88;;;8.80;;
53505;SDS011;39388;50.936;6.848;2023-02-15T16:13:52;12.77;;;8.82;;
53505;SDS011;39388;50.936;6.848;2023-02-15T16:16:27;15.70;;;8.70;;
53505;SDS011;39388;50.936;6.848;2023-02-15T16:18:59;12.35;;;8.38;;
53505;SDS011;39388;50.936;6.848;2023-02-15T16:21:31;11.57;;;8.35;;
53505;SDS011;39388;50.936;6.848;2023-02-15T16:24:25;12.80;;;9.18;;
53505;SDS011;39388;50.936;6.848;2023-02-15T16:29:47;14.60;;;9.32;;
53505;SDS011;39388;50.936;6.848;2023-02-15T16:35:00;13.90;;;9.10;;
53505;SDS011;39388;50.936;6.848;2023-02-15T16:37:32;12.60;;;8.20;;
53505;SDS011;39388;50.936;6.848;2023-02-15T16:40:04;12.75;;;8.70;;
53505;SDS011;39388;50.936;6.848;2023-02-15T16:42:34;12.35;;;8.95;;
53505;SDS011;39388;50.936;6.848;2023-02-15T16:45:07;13.38;;;9.32;;
53505;SDS011;39388;50.936;6.848;2023-02-15T16:47:45;14.57;;;9.48;;
53505;SDS011;39388;50.936;6.848;2023-02-15T16:50:20;13.60;;;9.50;;
53505;SDS011;39388;50.936;6.848;2023-02-15T16:52:53;14.77;;;9.50;;
53505;SDS011;39388;50.936;6.848;2023-02-15T16:55:35;16.17;;;10.32;;
53505;SDS011;39388;50.936;6.848;2023-02-15T16:58:13;14.93;;;10.25;;
53505;SDS011;39388;50.936;6.848;2023-02-15T17:00:46;15.02;;;9.70;;
53505;SDS011;39388;50.936;6.848;2023-02-15T17:05:49;16.60;;;10.38;;
53505;SDS011;39388;50.936;6.848;2023-02-15T17:16:29;15.60;;;10.82;;
53505;SDS011;39388;50.936;6.848;2023-02-15T17:19:02;13.95;;;10.75;;
53505;SDS011;39388;50.936;6.848;2023-02-15T17:21:49;16.80;;;10.30;;
53505;SDS011;39388;50.936;6.848;2023-02-15T17:24:43;16.08;;;10.55;;
53505;SDS011;39388;50.936;6.848;2023-02-15T17:27:19;14.07;;;10.63;;
53505;SDS011;39388;50.936;6.848;2023-02-15T17:30:03;15.43;;;10.60;;
53505;SDS011;39388;50.936;6.848;2023-02-15T17:32:53;16.42;;;10.85;;
53505;SDS011;39388;50.936;6.848;2023-02-15T17:35:27;14.68;;;10.48;;
53505;SDS011;39388;50.936;6.848;2023-02-15T17:40:49;18.17;;;10.90;;
53505;SDS011;39388;50.936;6.848;2023-02-15T17:43:19;19.95;;;13.73;;
53505;SDS011;39388;50.936;6.848;2023-02-15T17:45:50;22.15;;;14.07;;
53505;SDS011;39388;50.936;6.848;2023-02-15T17:48:27;20.70;;;13.90;;
53505;SDS011;39388;50.936;6.848;2023-02-15T17:51:01;18.08;;;13.02;;
53505;SDS011;39388;50.936;6.848;2023-02-15T17:56:04;17.80;;;12.15;;
53505;SDS011;39388;50.936;6.848;2023-02-15T17:58:39;17.85;;;11.70;;
53505;SDS011;39388;50.936;6.848;2023-02-15T18:01:14;14.48;;;10.65;;
53505;SDS011;39388;50.936;6.848;2023-02-15T18:04:13;12.80;;;9.27;;
53505;SDS011;39388;50.936;6.848;2023-02-15T18:07:02;14.73;;;9.95;;
53505;SDS011;39388;50.936;6.848;2023-02-15T18:09:51;13.73;;;9.40;;
53505;SDS011;39388;50.936;6.848;2023-02-15T18:12:40;13.57;;;10.07;;
53505;SDS011;39388;50.936;6.848;2023-02-15T18:15:11;15.52;;;11.10;;
53505;SDS011;39388;50.936;6.848;2023-02-15T18:17:42;19.98;;;14.30;;
53505;SDS011;39388;50.936;6.848;2023-02-15T18:20:19;18.30;;;14.48;;
53505;SDS011;39388;50.936;6.848;2023-02-15T18:22:53;17.10;;;12.90;;
53505;SDS011;39388;50.936;6.848;2023-02-15T18:25:24;31.20;;;21.58;;
53505;SDS011;39388;50.936;6.848;2023-02-15T18:27:54;19.55;;;15.63;;
53505;SDS011;39388;50.936;6.848;2023-02-15T18:30:24;21.17;;;14.15;;
53505;SDS011;39388;50.936;6.848;2023-02-15T18:32:56;17.42;;;12.77;;
53505;SDS011;39388;50.936;6.848;2023-02-15T18:35:29;18.85;;;12.77;;
53505;SDS011;39388;50.936;6.848;2023-02-15T18:38:01;22.90;;;13.50;;
53505;SDS011;39388;50.936;6.848;2023-02-15T18:40:31;19.90;;;13.65;;
53505;SDS011;39388;50.936;6.848;2023-02-15T18:43:02;20.98;;;13.98;;
53505;SDS011;39388;50.936;6.848;2023-02-15T18:45:32;16.92;;;13.10;;
53505;SDS011;39388;50.936;6.848;2023-02-15T18:48:04;20.98;;;12.23;;
53505;SDS011;39388;50.936;6.848;2023-02-15T18:50:37;18.30;;;13.32;;